createdAt,value
2023-04-15T00:00:13.061Z,11.1
2023-04-15T00:02:43.757Z,11
2023-04-15T00:05:14.450Z,11.1
2023-04-15T00:07:45.186Z,11
2023-04-15T00:10:15.484Z,11
2023-04-15T00:12:45.883Z,11.1
2023-04-15T00:15:16.893Z,11.1
2023-04-15T00:17:47.666Z,11.2
2023-04-15T00:20:18.167Z,11.2
2023-04-15T00:22:49.923Z,11.1
2023-04-15T00:25:20.616Z,11
2023-04-15T00:27:51.708Z,11.2
2023-04-15T00:30:22.482Z,11.2
2023-04-15T00:32:53.382Z,11.2
2023-04-15T00:35:23.938Z,11.2
2023-04-15T00:37:54.648Z,11.1
2023-04-15T00:40:25.220Z,11.3
2023-04-15T00:42:55.893Z,11.2
2023-04-15T00:45:26.561Z,11.2
2023-04-15T00:47:57.777Z,11.2
2023-04-15T00:50:28.797Z,11.1
2023-04-15T00:52:59.497Z,11.1
2023-04-15T00:55:29.821Z,11
2023-04-15T00:58:00.616Z,11
2023-04-15T01:00:30.989Z,10.9
2023-04-15T01:03:02.108Z,10.9
2023-04-15T01:05:32.749Z,11
2023-04-15T01:08:03.699Z,11.1
2023-04-15T01:10:34.619Z,11
2023-04-15T01:13:05.166Z,11.1
2023-04-15T01:15:35.983Z,10.9
2023-04-15T01:18:06.846Z,11
2023-04-15T01:20:37.607Z,11
2023-04-15T01:23:08.098Z,10.9
2023-04-15T01:25:39.176Z,11
2023-04-15T01:28:09.925Z,11
2023-04-15T01:30:40.852Z,10.9
2023-04-15T01:33:11.582Z,10.9
2023-04-15T01:35:42.740Z,11
2023-04-15T01:38:13.100Z,11
2023-04-15T01:40:44.289Z,11
2023-04-15T01:43:15.139Z,11
2023-04-15T01:45:45.978Z,11
2023-04-15T01:48:17.192Z,11
2023-04-15T01:50:47.842Z,11.1
2023-04-15T01:53:18.780Z,11.1
2023-04-15T01:55:49.295Z,11.1
2023-04-15T01:58:20.221Z,11.1
2023-04-15T02:00:50.804Z,11.1
2023-04-15T02:03:22.352Z,11.1
2023-04-15T02:05:52.625Z,11.2
2023-04-15T02:08:23.546Z,11.3
2023-04-15T02:10:53.827Z,11.3
2023-04-15T02:13:24.472Z,11.3
2023-04-15T02:15:54.733Z,11.3
2023-04-15T02:18:25.639Z,11.2
2023-04-15T02:20:56.032Z,11.2
2023-04-15T02:23:26.138Z,11.1
2023-04-15T02:25:57.537Z,11.2
2023-04-15T02:28:29.179Z,11.1
2023-04-15T02:30:59.957Z,11.2
2023-04-15T02:33:29.127Z,11.2
2023-04-15T02:35:59.592Z,11.1
2023-04-15T02:38:31.350Z,11.2
2023-04-15T02:41:02.196Z,11.1
2023-04-15T02:43:32.925Z,11.1
2023-04-15T02:46:04.022Z,11.1
2023-04-15T02:48:35.137Z,11.1
2023-04-15T02:51:05.874Z,11.1
2023-04-15T02:53:35.032Z,11
2023-04-15T02:56:06.284Z,11.1
2023-04-15T02:58:37.304Z,11.1
2023-04-15T03:01:08.138Z,11.1
2023-04-15T03:03:39.095Z,11
2023-04-15T03:06:10.281Z,11
2023-04-15T03:08:41.443Z,11
2023-04-15T03:11:12.478Z,11
2023-04-15T03:13:43.304Z,10.9
2023-04-15T03:16:16.999Z,11
2023-04-15T03:18:47.796Z,10.9
2023-04-15T03:21:18.356Z,10.9
2023-04-15T03:23:49.258Z,10.9
2023-04-15T03:26:20.934Z,10.9
2023-04-15T03:28:52.788Z,10.8
2023-04-15T03:31:23.345Z,10.8
2023-04-15T03:33:54.420Z,10.9
2023-04-15T03:36:25.179Z,10.7
2023-04-15T03:38:59.346Z,10.7
2023-04-15T03:41:29.886Z,10.7
2023-04-15T03:44:00.262Z,10.7
2023-04-15T03:46:31.176Z,10.7
2023-04-15T03:49:02.389Z,10.7
2023-04-15T03:51:33.066Z,10.6
2023-04-15T03:54:03.802Z,10.7
2023-04-15T03:56:34.894Z,10.7
2023-04-15T03:59:05.826Z,10.7
2023-04-15T04:01:36.751Z,10.7
2023-04-15T04:04:07.782Z,10.7
2023-04-15T04:06:38.704Z,10.7
2023-04-15T04:09:09.858Z,10.6
2023-04-15T04:11:40.173Z,10.8
2023-04-15T04:14:10.479Z,10.7
2023-04-15T04:16:41.622Z,10.7
2023-04-15T04:19:12.751Z,10.7
2023-04-15T04:21:43.243Z,10.8
2023-04-15T04:24:14.385Z,10.8
2023-04-15T04:26:45.228Z,10.7
2023-04-15T04:29:16.112Z,10.6
2023-04-15T04:31:47.056Z,10.6
2023-04-15T04:34:17.665Z,10.7
2023-04-15T04:36:48.930Z,10.7
2023-04-15T04:39:19.818Z,10.8
2023-04-15T04:41:50.606Z,10.8
2023-04-15T04:44:21.826Z,10.9
2023-04-15T04:46:52.369Z,10.9
2023-04-15T04:49:23.544Z,11
2023-04-15T04:51:54.101Z,11
2023-04-15T04:54:24.701Z,11.1
2023-04-15T04:56:55.431Z,11.1
2023-04-15T04:59:30.307Z,11.3
2023-04-15T05:02:00.912Z,11.3
2023-04-15T05:04:32.063Z,11.5
2023-04-15T05:07:03.018Z,11.5
2023-04-15T05:09:34.144Z,11.4
2023-04-15T05:12:04.522Z,11.5
2023-04-15T05:14:34.894Z,11.6
2023-04-15T05:17:04.395Z,11.8
2023-04-15T05:19:35.166Z,11.9
2023-04-15T05:22:05.505Z,12
2023-04-15T05:24:36.430Z,12.1
2023-04-15T05:27:07.374Z,12.2
2023-04-15T05:29:38.402Z,12.2
2023-04-15T05:32:08.992Z,12.3
2023-04-15T05:34:40.233Z,12.3
2023-04-15T05:37:10.815Z,12.4
2023-04-15T05:39:41.693Z,12.6
2023-04-15T05:42:12.651Z,12.6
2023-04-15T05:44:43.710Z,12.6
2023-04-15T05:47:15.000Z,12.6
2023-04-15T05:49:47.005Z,12.7
2023-04-15T05:52:17.616Z,12.8
2023-04-15T05:54:48.394Z,13
2023-04-15T05:57:18.986Z,13.1
2023-04-15T05:59:49.868Z,13.2
2023-04-15T06:02:20.703Z,13.4
2023-04-15T06:04:51.767Z,13.5
2023-04-15T06:07:22.223Z,13.6
2023-04-15T06:09:53.190Z,13.6
2023-04-15T06:12:23.453Z,13.8
2023-04-15T06:14:53.873Z,13.9
2023-04-15T06:17:24.505Z,14
2023-04-15T06:19:55.174Z,14.2
2023-04-15T06:22:25.698Z,14.4
2023-04-15T06:24:56.319Z,14.5
2023-04-15T06:27:26.861Z,14.7
2023-04-15T06:29:57.173Z,14.8
2023-04-15T06:32:27.835Z,14.8
2023-04-15T06:34:58.884Z,14.7
2023-04-15T06:37:29.496Z,14.8
2023-04-15T06:39:59.955Z,14.8
2023-04-15T06:42:29.463Z,15
2023-04-15T06:45:00.320Z,14.8
2023-04-15T06:47:30.792Z,15
2023-04-15T06:50:01.284Z,15.3
2023-04-15T06:52:33.350Z,15.4
2023-04-15T06:55:03.985Z,15.6
2023-04-15T06:57:35.208Z,15.6
2023-04-15T07:00:05.914Z,15.6
2023-04-15T07:02:36.974Z,15.6
2023-04-15T07:05:07.300Z,15.5
2023-04-15T07:07:37.628Z,15.6
2023-04-15T07:10:08.339Z,15.6
2023-04-15T07:12:38.824Z,15.8
2023-04-15T07:15:09.381Z,15.9
2023-04-15T07:17:40.330Z,16
2023-04-15T07:20:11.036Z,16.1
2023-04-15T07:22:41.742Z,16.2
2023-04-15T07:25:12.137Z,16.3
2023-04-15T07:27:43.042Z,16.3
2023-04-15T07:30:13.753Z,16.4
2023-04-15T07:32:44.238Z,16.4
2023-04-15T07:35:15.075Z,16.5
2023-04-15T07:37:45.847Z,16.7
2023-04-15T07:40:16.484Z,16.7
2023-04-15T07:42:47.070Z,16.8
2023-04-15T07:45:17.462Z,16.9
2023-04-15T07:47:48.206Z,16.9
2023-04-15T07:50:18.657Z,17
2023-04-15T07:52:49.037Z,17
2023-04-15T07:55:19.304Z,17.3
2023-04-15T07:57:50.039Z,17.2
2023-04-15T08:00:20.769Z,17.3
2023-04-15T08:02:51.712Z,17.4
2023-04-15T08:05:22.692Z,17.3
2023-04-15T08:07:53.416Z,17.6
2023-04-15T08:10:24.056Z,17.7
2023-04-15T08:12:54.483Z,17.8
2023-04-15T08:15:24.922Z,17.9
2023-04-15T08:17:55.524Z,18
2023-04-15T08:20:26.254Z,18
2023-04-15T08:22:56.813Z,17.9
2023-04-15T08:25:27.996Z,18.1
2023-04-15T08:27:58.236Z,18.2
2023-04-15T08:30:28.732Z,18.3
2023-04-15T08:32:59.506Z,18.3
2023-04-15T08:35:28.009Z,18.4
2023-04-15T08:37:58.315Z,18.4
2023-04-15T08:40:29.329Z,18.4
2023-04-15T08:43:00.459Z,18.2
2023-04-15T08:45:30.975Z,18.5
2023-04-15T08:48:01.931Z,18.6
2023-04-15T08:50:32.369Z,18.5
2023-04-15T08:53:03.311Z,18.5
2023-04-15T08:55:33.437Z,18.6
2023-04-15T08:58:04.299Z,18.6
2023-04-15T09:00:35.278Z,18.9
2023-04-15T09:03:05.908Z,18.7
2023-04-15T09:05:36.273Z,18.8
2023-04-15T09:08:06.862Z,18.8
2023-04-15T09:10:37.014Z,19
2023-04-15T09:13:08.911Z,18.8
2023-04-15T09:15:39.149Z,19
2023-04-15T09:18:09.183Z,19
2023-04-15T09:20:39.667Z,19.1
2023-04-15T09:23:10.287Z,19
2023-04-15T09:25:40.709Z,19.1
2023-04-15T09:28:10.835Z,19
2023-04-15T09:30:41.708Z,19
2023-04-15T09:33:11.902Z,19.1
2023-04-15T09:35:42.133Z,19
2023-04-15T09:38:12.384Z,19.2
2023-04-15T09:40:43.788Z,19.3
2023-04-15T09:43:14.278Z,19
2023-04-15T09:45:44.369Z,19.1
2023-04-15T09:48:15.043Z,19.3
2023-04-15T09:50:46.029Z,19.5
2023-04-15T09:53:16.385Z,19.5
2023-04-15T09:55:48.235Z,19.6
2023-04-15T09:58:20.440Z,19.6
2023-04-15T10:00:50.748Z,19.6
2023-04-15T10:03:22.263Z,19.7
2023-04-15T10:05:52.536Z,19.7
2023-04-15T10:08:23.024Z,19.7
2023-04-15T10:10:53.708Z,19.8
2023-04-15T10:13:24.445Z,19.9
2023-04-15T10:15:54.847Z,19.9
2023-04-15T10:18:25.224Z,19.8
2023-04-15T10:20:55.511Z,19.9
2023-04-15T10:23:26.277Z,20.1
2023-04-15T10:25:56.972Z,20.2
2023-04-15T10:28:27.619Z,20.3
2023-04-15T10:30:58.582Z,20.3
2023-04-15T10:33:29.450Z,20.1
2023-04-15T10:36:01.078Z,20.3
2023-04-15T10:38:31.539Z,20.2
2023-04-15T10:41:02.409Z,20.2
2023-04-15T10:43:32.907Z,20.4
2023-04-15T10:46:02.843Z,20.2
2023-04-15T10:48:33.582Z,20.4
2023-04-15T10:51:04.038Z,20.4
2023-04-15T10:53:34.347Z,20.4
2023-04-15T10:56:04.801Z,20.3
2023-04-15T10:58:35.307Z,20.5
2023-04-15T11:01:06.096Z,20.4
2023-04-15T11:03:36.758Z,20.4
2023-04-15T11:06:07.155Z,20.4
2023-04-15T11:08:38.068Z,20.4
2023-04-15T11:11:08.431Z,20.6
2023-04-15T11:13:39.060Z,20.6
2023-04-15T11:16:09.425Z,20.7
2023-04-15T11:18:39.961Z,20.6
2023-04-15T11:21:10.666Z,20.6
2023-04-15T11:23:41.350Z,20.5
2023-04-15T11:26:12.018Z,20.5
2023-04-15T11:28:42.401Z,20.4
2023-04-15T11:31:13.500Z,20.4
2023-04-15T11:33:44.039Z,20.4
2023-04-15T11:36:14.305Z,20.4
2023-04-15T11:38:45.054Z,20.5
2023-04-15T11:41:15.596Z,20.4
2023-04-15T11:43:46.280Z,20.6
2023-04-15T11:46:25.857Z,20.7
2023-04-15T11:49:03.137Z,20.9
2023-04-15T11:51:33.509Z,21
2023-04-15T11:54:04.596Z,21
2023-04-15T11:56:36.490Z,20.8
2023-04-15T11:59:10.310Z,20.8
2023-04-15T12:01:41.136Z,21
2023-04-15T12:04:16.067Z,21.2
2023-04-15T12:06:46.056Z,21.2
2023-04-15T12:09:18.979Z,21.2
2023-04-15T12:11:50.368Z,21.4
2023-04-15T12:14:20.674Z,21.3
2023-04-15T12:16:52.040Z,21.2
2023-04-15T12:19:23.481Z,21.4
2023-04-15T12:21:54.988Z,21.5
2023-04-15T12:32:24.527Z,21.7
2023-04-15T12:45:35.880Z,22.2
2023-04-15T12:48:07.689Z,22.2
2023-04-15T12:50:44.206Z,22.3
2023-04-15T12:53:16.244Z,22.1
2023-04-15T12:55:47.919Z,22.1
2023-04-15T12:58:23.210Z,22.3
2023-04-15T13:00:57.394Z,22.5
2023-04-15T13:03:30.716Z,22.7
2023-04-15T13:06:01.038Z,22.4
2023-04-15T13:08:31.524Z,22.2
2023-04-15T13:11:08.203Z,22.3
2023-04-15T13:13:38.994Z,22.3
2023-04-15T13:16:09.536Z,22.2
2023-04-15T13:18:42.082Z,22.1
2023-04-15T13:21:18.962Z,22.2
2023-04-15T13:23:49.394Z,22.2
2023-04-15T13:26:19.674Z,22.4
2023-04-15T13:28:52.493Z,22.3
2023-04-15T13:31:27.686Z,22.5
2023-04-15T13:33:59.632Z,22.6
2023-04-15T13:36:32.189Z,22.3
2023-04-15T13:39:02.712Z,22.6
2023-04-15T13:41:33.527Z,22.6
2023-04-15T13:44:07.914Z,22.7
2023-04-15T13:46:41.105Z,22.5
2023-04-15T13:49:11.707Z,22.3
2023-04-15T13:51:42.554Z,22.1
2023-04-15T13:54:16.379Z,22
2023-04-15T13:56:56.648Z,21.7
2023-04-15T13:59:31.090Z,21.8
2023-04-15T14:02:05.032Z,22
2023-04-15T14:04:35.929Z,22.1
2023-04-15T14:07:06.583Z,22.2
2023-04-15T14:09:42.889Z,22.1
2023-04-15T14:12:07.489Z,22.1
2023-04-15T14:14:44.096Z,21.8
2023-04-15T14:17:14.817Z,21.9
2023-04-15T14:19:45.621Z,21.9
2023-04-15T14:22:16.282Z,21.5
2023-04-15T14:24:46.912Z,21.8
2023-04-15T14:27:17.980Z,21.6
2023-04-15T14:29:50.479Z,21.7
2023-04-15T14:32:25.914Z,21.6
2023-04-15T14:34:56.883Z,21.6
2023-04-15T14:37:27.382Z,21.5
2023-04-15T14:40:00.040Z,21.5
2023-04-15T14:42:30.922Z,21.1
2023-04-15T14:45:03.970Z,21.1
2023-04-15T14:47:39.322Z,21.1
2023-04-15T14:50:10.063Z,21.1
2023-04-15T14:52:40.671Z,21.1
2023-04-15T14:55:11.553Z,21.2
2023-04-15T14:57:42.610Z,21
2023-04-15T15:00:16.115Z,20.9
2023-04-15T15:02:45.460Z,21
2023-04-15T15:05:16.049Z,20.9
2023-04-15T15:07:46.450Z,20.8
2023-04-15T15:10:17.487Z,20.8
2023-04-15T15:12:47.948Z,20.9
2023-04-15T15:15:28.399Z,20.9
2023-04-15T15:17:49.458Z,20.7
2023-04-15T15:20:20.204Z,20.9
2023-04-15T15:22:50.950Z,20.9
2023-04-15T15:25:21.782Z,20.8
2023-04-15T15:27:52.549Z,20.7
2023-04-15T15:30:23.236Z,20.8
2023-04-15T15:32:54.268Z,20.8
2023-04-15T15:35:24.992Z,20.7
2023-04-15T15:37:56.889Z,20.6
2023-04-15T15:40:27.657Z,20.5
2023-04-15T15:42:58.134Z,20.6
2023-04-15T15:45:29.019Z,20.3
2023-04-15T15:48:00.112Z,20.2
2023-04-15T15:50:30.455Z,20
2023-04-15T15:53:01.118Z,19.8
2023-04-15T15:55:31.605Z,19.6
2023-04-15T15:58:02.174Z,19.5
2023-04-15T16:00:33.430Z,19.5
2023-04-15T16:03:07.032Z,19.1
2023-04-15T16:05:35.577Z,19
2023-04-15T16:08:06.180Z,19.1
2023-04-15T16:10:36.841Z,19
2023-04-15T16:13:07.935Z,18.9
2023-04-15T16:15:38.555Z,18.9
2023-04-15T16:18:09.295Z,18.9
2023-04-15T16:20:39.878Z,18.8
2023-04-15T16:23:10.379Z,18.7
2023-04-15T16:25:40.850Z,18.6
2023-04-15T16:28:26.635Z,18.6
2023-04-15T16:30:51.298Z,18.5
2023-04-15T16:33:21.777Z,18.5
2023-04-15T16:35:52.631Z,18.4
2023-04-15T16:38:23.286Z,18.2
2023-04-15T16:40:54.078Z,18.2
2023-04-15T16:43:24.722Z,18
2023-04-15T16:45:55.383Z,17.9
2023-04-15T16:48:26.313Z,17.9
2023-04-15T16:50:57.125Z,17.8
2023-04-15T16:53:27.546Z,17.4
2023-04-15T16:55:58.385Z,17.4
2023-04-15T16:58:28.966Z,17.3
2023-04-15T17:01:00.183Z,17.4
2023-04-15T17:03:30.842Z,17.3
2023-04-15T17:06:01.127Z,17.3
2023-04-15T17:08:31.672Z,17.2
2023-04-15T17:11:02.009Z,17.1
2023-04-15T17:13:32.461Z,17
2023-04-15T17:16:03.310Z,17
2023-04-15T17:18:33.805Z,17
2023-04-15T17:21:04.452Z,16.9
2023-04-15T17:23:34.974Z,16.9
2023-04-15T17:26:05.519Z,16.8
2023-04-15T17:28:40.178Z,16.7
2023-04-15T17:31:11.115Z,16.7
2023-04-15T17:33:55.121Z,16.7
2023-04-15T17:36:12.414Z,16.5
2023-04-15T17:38:43.273Z,16.5
2023-04-15T17:41:14.697Z,16.3
2023-04-15T17:43:54.148Z,16.4
2023-04-15T17:49:20.864Z,16.6
2023-04-15T17:51:50.957Z,16.5
2023-04-15T17:54:21.651Z,16.3
2023-04-15T17:56:50.364Z,16.3
2023-04-15T17:59:21.060Z,16.3
2023-04-15T18:01:52.077Z,16.3
2023-04-15T18:04:26.627Z,16.3
2023-04-15T18:06:55.812Z,16.3
2023-04-15T18:09:26.817Z,16.2
2023-04-15T18:11:56.927Z,16.2
2023-04-15T18:14:34.882Z,16.1
2023-04-15T18:17:04.933Z,16.1
2023-04-15T18:19:35.292Z,16
2023-04-15T18:22:05.722Z,16
2023-04-15T18:24:35.940Z,15.9
2023-04-15T18:27:06.537Z,15.9
2023-04-15T18:29:37.197Z,16
2023-04-15T18:32:07.961Z,15.9
2023-04-15T18:34:38.408Z,15.8
2023-04-15T18:37:08.797Z,15.9
2023-04-15T18:39:38.936Z,15.8
2023-04-15T18:42:09.332Z,15.8
2023-04-15T18:44:39.851Z,15.7
2023-04-15T18:47:10.531Z,15.7
2023-04-15T18:49:41.096Z,15.7
2023-04-15T18:52:14.353Z,15.6
2023-04-15T18:54:44.646Z,15.6
2023-04-15T18:57:15.206Z,15.7
2023-04-15T18:59:43.610Z,15.6
2023-04-15T19:04:49.221Z,15.5
2023-04-15T19:07:19.344Z,15.5
2023-04-15T19:09:55.870Z,15.5
2023-04-15T19:12:26.571Z,15.3
2023-04-15T19:14:56.956Z,15.2
2023-04-15T19:17:25.959Z,15.2
2023-04-15T19:19:54.818Z,15.4
2023-04-15T19:22:25.370Z,15.2
2023-04-15T19:24:55.585Z,15.4
2023-04-15T19:27:26.538Z,15.3
2023-04-15T19:29:56.583Z,15.3
2023-04-15T19:32:27.291Z,15.4
2023-04-15T19:34:57.736Z,15.4
2023-04-15T19:37:28.391Z,15.3
2023-04-15T19:40:03.163Z,15.2
2023-04-15T19:42:37.728Z,15.3
2023-04-15T19:45:08.249Z,15.2
2023-04-15T19:50:12.750Z,14.9
2023-04-15T19:52:43.237Z,14.8
2023-04-15T19:55:14.840Z,15.1
2023-04-15T19:57:47.021Z,15.2
2023-04-15T20:00:17.350Z,15.1
2023-04-15T20:02:48.224Z,15.1
2023-04-15T20:05:18.507Z,15.2
2023-04-15T20:07:48.469Z,15.1
2023-04-15T20:10:18.782Z,15.1
2023-04-15T20:12:52.479Z,15.2
2023-04-15T20:15:24.279Z,15.1
2023-04-15T20:17:54.581Z,15.1
2023-04-15T20:20:24.933Z,15.1
2023-04-15T20:22:55.414Z,15.2
2023-04-15T20:25:25.839Z,15.2
2023-04-15T20:27:56.180Z,14.9
2023-04-15T20:30:26.829Z,15.1
2023-04-15T20:32:57.704Z,15.1
2023-04-15T20:35:28.205Z,15.1
2023-04-15T20:37:58.978Z,15
2023-04-15T20:40:29.812Z,15
2023-04-15T20:43:00.525Z,15
2023-04-15T20:45:31.030Z,15.1
2023-04-15T20:48:01.412Z,15.1
2023-04-15T20:50:32.551Z,15.1
2023-04-15T20:53:03.015Z,15
2023-04-15T20:55:33.409Z,15.1
2023-04-15T20:58:03.896Z,15.1
2023-04-15T21:00:35.155Z,15.2
2023-04-15T21:03:05.992Z,15.1
2023-04-15T21:05:36.567Z,15.2
2023-04-15T21:08:07.209Z,15.1
2023-04-15T21:10:37.358Z,15.2
2023-04-15T21:13:07.908Z,15.2
2023-04-15T21:15:38.584Z,15.2
2023-04-15T21:18:09.429Z,15.3
2023-04-15T21:20:40.201Z,15.1
2023-04-15T21:23:12.971Z,15.2
2023-04-15T21:25:41.717Z,15.2
2023-04-15T21:28:12.847Z,15.2
2023-04-15T21:30:43.209Z,15.3
2023-04-15T21:33:13.985Z,15.2
2023-04-15T21:35:44.863Z,15.2
2023-04-15T21:38:15.542Z,15.1
2023-04-15T21:40:46.208Z,15.2
2023-04-15T21:43:16.520Z,15.1
2023-04-15T21:45:51.393Z,15.2
2023-04-15T21:48:18.016Z,15.1
2023-04-15T21:50:49.065Z,15.1
2023-04-15T21:53:19.821Z,15
2023-04-15T21:55:55.037Z,14.9
2023-04-15T21:58:25.631Z,15.1
2023-04-15T22:00:56.466Z,15.1
2023-04-15T22:03:27.561Z,15.1
2023-04-15T22:05:58.234Z,14.9
2023-04-15T22:08:29.215Z,15
2023-04-15T22:10:59.907Z,14.9
2023-04-15T22:13:30.392Z,14.9
2023-04-15T22:16:01.243Z,15
2023-04-15T22:18:32.266Z,14.9
2023-04-15T22:21:02.648Z,14.9
2023-04-15T22:23:37.454Z,14.9
2023-04-15T22:26:08.571Z,14.8
2023-04-15T22:31:13.337Z,14.7
2023-04-15T22:33:50.553Z,14.7
2023-04-15T22:36:21.040Z,14.6
2023-04-15T22:38:51.499Z,14.5
2023-04-15T22:41:21.742Z,14.3
2023-04-15T22:43:52.730Z,14.5
2023-04-15T22:46:22.972Z,14.4
2023-04-15T22:48:53.661Z,14.5
2023-04-15T22:51:24.466Z,14.3
2023-04-15T22:53:55.325Z,14.2
2023-04-15T22:56:25.921Z,14.2
2023-04-15T22:58:56.842Z,14.1
2023-04-15T23:01:27.152Z,14.1
2023-04-15T23:04:05.584Z,14.1
2023-04-15T23:06:28.424Z,14.1
2023-04-15T23:08:57.496Z,14
2023-04-15T23:11:28.067Z,14
2023-04-15T23:13:58.787Z,14
2023-04-15T23:16:29.472Z,14
2023-04-15T23:19:00.221Z,13.9
2023-04-15T23:21:30.841Z,13.9
2023-04-15T23:24:01.245Z,13.9
2023-04-15T23:26:31.961Z,13.9
2023-04-15T23:29:02.618Z,13.9
2023-04-15T23:31:33.283Z,13.8
2023-04-15T23:34:04.311Z,13.8
2023-04-15T23:36:34.981Z,13.6
2023-04-15T23:39:05.923Z,13.5
2023-04-15T23:41:36.959Z,13.4
2023-04-15T23:44:07.954Z,13.4
2023-04-15T23:46:39.016Z,13.4
2023-04-15T23:49:10.010Z,13.4
2023-04-15T23:51:40.786Z,13.3
2023-04-15T23:54:11.805Z,13.2
2023-04-15T23:56:42.577Z,13.1
2023-04-15T23:59:13.335Z,13.1
